sensor_id;sensor_type;location;lat;lon;timestamp;temperature;humidity
44843;DHT22;31884;52.538;13.820;2023-08-20T00:00:16;22.10;99.90
44843;DHT22;31884;52.538;13.820;2023-08-20T00:02:42;22.10;99.90
44843;DHT22;31884;52.538;13.820;2023-08-20T00:05:09;22.10;99.90
44843;DHT22;31884;52.538;13.820;2023-08-20T00:07:35;22.10;99.90
44843;DHT22;31884;52.538;13.820;2023-08-20T00:10:02;22.20;99.90
44843;DHT22;31884;52.538;13.820;2023-08-20T00:12:29;22.20;99.90
44843;DHT22;31884;52.538;13.820;2023-08-20T00:15:03;22.20;99.90
44843;DHT22;31884;52.538;13.820;2023-08-20T00:17:33;22.20;99.90
44843;DHT22;31884;52.538;13.820;2023-08-20T00:19:59;22.30;99.90
44843;DHT22;31884;52.538;13.820;2023-08-20T00:22:26;22.30;99.90
44843;DHT22;31884;52.538;13.820;2023-08-20T00:24:55;22.30;99.90
44843;DHT22;31884;52.538;13.820;2023-08-20T00:27:21;22.40;99.90
44843;DHT22;31884;52.538;13.820;2023-08-20T00:29:47;22.40;99.90
44843;DHT22;31884;52.538;13.820;2023-08-20T00:32:14;22.40;99.90
44843;DHT22;31884;52.538;13.820;2023-08-20T00:34:39;22.40;99.90
44843;DHT22;31884;52.538;13.820;2023-08-20T00:37:05;22.40;99.90
44843;DHT22;31884;52.538;13.820;2023-08-20T00:39:31;22.40;99.90
44843;DHT22;31884;52.538;13.820;2023-08-20T00:41:57;22.40;99.90
44843;DHT22;31884;52.538;13.820;2023-08-20T00:44:22;22.40;99.90
44843;DHT22;31884;52.538;13.820;2023-08-20T00:46:48;22.50;99.90
44843;DHT22;31884;52.538;13.820;2023-08-20T00:49:14;22.50;99.90
44843;DHT22;31884;52.538;13.820;2023-08-20T00:51:39;22.50;99.90
44843;DHT22;31884;52.538;13.820;2023-08-20T00:54:05;22.50;99.90
44843;DHT22;31884;52.538;13.820;2023-08-20T00:56:31;22.50;99.90
44843;DHT22;31884;52.538;13.820;2023-08-20T00:58:56;22.40;99.90
44843;DHT22;31884;52.538;13.820;2023-08-20T01:01:23;22.50;99.90
44843;DHT22;31884;52.538;13.820;2023-08-20T01:03:49;22.40;99.90
44843;DHT22;31884;52.538;13.820;2023-08-20T01:06:22;22.40;99.90
44843;DHT22;31884;52.538;13.820;2023-08-20T01:08:57;22.40;99.90
44843;DHT22;31884;52.538;13.820;2023-08-20T01:11:29;22.40;99.90
44843;DHT22;31884;52.538;13.820;2023-08-20T01:13:55;22.40;99.90
44843;DHT22;31884;52.538;13.820;2023-08-20T01:16:21;22.40;99.90
44843;DHT22;31884;52.538;13.820;2023-08-20T01:18:47;22.40;99.90
44843;DHT22;31884;52.538;13.820;2023-08-20T01:21:37;22.30;99.90
44843;DHT22;31884;52.538;13.820;2023-08-20T01:29:25;22.30;99.90
44843;DHT22;31884;52.538;13.820;2023-08-20T01:31:53;22.30;99.90
44843;DHT22;31884;52.538;13.820;2023-08-20T01:34:20;22.20;99.90
44843;DHT22;31884;52.538;13.820;2023-08-20T01:36:46;22.30;99.90
44843;DHT22;31884;52.538;13.820;2023-08-20T01:39:11;22.30;99.90
44843;DHT22;31884;52.538;13.820;2023-08-20T01:41:37;22.30;99.90
44843;DHT22;31884;52.538;13.820;2023-08-20T01:44:02;22.30;99.90
44843;DHT22;31884;52.538;13.820;2023-08-20T01:46:28;22.30;99.90
44843;DHT22;31884;52.538;13.820;2023-08-20T01:48:53;22.20;99.90
44843;DHT22;31884;52.538;13.820;2023-08-20T01:51:19;22.20;99.90
44843;DHT22;31884;52.538;13.820;2023-08-20T02:00:28;22.00;99.90
44843;DHT22;31884;52.538;13.820;2023-08-20T02:02:55;21.90;99.90
44843;DHT22;31884;52.538;13.820;2023-08-20T02:05:21;21.80;99.90
44843;DHT22;31884;52.538;13.820;2023-08-20T02:07:46;21.70;99.90
44843;DHT22;31884;52.538;13.820;2023-08-20T02:10:12;21.70;99.90
44843;DHT22;31884;52.538;13.820;2023-08-20T02:12:37;21.70;99.90
44843;DHT22;31884;52.538;13.820;2023-08-20T02:15:03;21.60;99.90
44843;DHT22;31884;52.538;13.820;2023-08-20T02:17:29;21.60;99.90
44843;DHT22;31884;52.538;13.820;2023-08-20T02:19:54;21.50;99.90
44843;DHT22;31884;52.538;13.820;2023-08-20T02:22:20;21.40;99.90
44843;DHT22;31884;52.538;13.820;2023-08-20T02:24:46;21.40;99.90
44843;DHT22;31884;52.538;13.820;2023-08-20T02:27:11;21.40;99.90
44843;DHT22;31884;52.538;13.820;2023-08-20T02:29:37;21.30;99.90
44843;DHT22;31884;52.538;13.820;2023-08-20T02:32:02;21.20;99.90
44843;DHT22;31884;52.538;13.820;2023-08-20T02:34:28;21.20;99.90
44843;DHT22;31884;52.538;13.820;2023-08-20T02:36:53;21.20;99.90
44843;DHT22;31884;52.538;13.820;2023-08-20T02:39:20;21.10;99.90
44843;DHT22;31884;52.538;13.820;2023-08-20T02:41:46;21.10;99.90
44843;DHT22;31884;52.538;13.820;2023-08-20T02:44:11;21.10;99.90
44843;DHT22;31884;52.538;13.820;2023-08-20T02:46:37;21.00;99.90
44843;DHT22;31884;52.538;13.820;2023-08-20T02:49:03;21.00;99.90
44843;DHT22;31884;52.538;13.820;2023-08-20T02:51:29;20.90;99.90
44843;DHT22;31884;52.538;13.820;2023-08-20T02:53:54;20.90;99.90
44843;DHT22;31884;52.538;13.820;2023-08-20T02:56:20;20.90;99.90
44843;DHT22;31884;52.538;13.820;2023-08-20T02:58:45;20.80;99.90
44843;DHT22;31884;52.538;13.820;2023-08-20T03:01:22;20.80;99.90
44843;DHT22;31884;52.538;13.820;2023-08-20T03:03:48;20.80;99.90
44843;DHT22;31884;52.538;13.820;2023-08-20T03:06:14;20.80;99.90
44843;DHT22;31884;52.538;13.820;2023-08-20T03:08:39;20.80;99.90
44843;DHT22;31884;52.538;13.820;2023-08-20T03:11:05;20.80;99.90
44843;DHT22;31884;52.538;13.820;2023-08-20T03:13:30;20.80;99.90
44843;DHT22;31884;52.538;13.820;2023-08-20T03:15:56;20.80;99.90
44843;DHT22;31884;52.538;13.820;2023-08-20T03:18:21;20.80;99.90
44843;DHT22;31884;52.538;13.820;2023-08-20T03:20:47;20.90;99.90
44843;DHT22;31884;52.538;13.820;2023-08-20T03:23:12;20.90;99.90
44843;DHT22;31884;52.538;13.820;2023-08-20T03:25:38;20.90;99.90
44843;DHT22;31884;52.538;13.820;2023-08-20T03:28:04;21.00;99.90
44843;DHT22;31884;52.538;13.820;2023-08-20T03:30:29;20.90;99.90
44843;DHT22;31884;52.538;13.820;2023-08-20T03:32:55;21.00;99.90
44843;DHT22;31884;52.538;13.820;2023-08-20T03:35:20;21.00;99.90
44843;DHT22;31884;52.538;13.820;2023-08-20T03:37:46;21.00;99.90
44843;DHT22;31884;52.538;13.820;2023-08-20T03:40:11;21.00;99.90
44843;DHT22;31884;52.538;13.820;2023-08-20T03:42:37;21.00;99.90
44843;DHT22;31884;52.538;13.820;2023-08-20T03:45:03;21.00;99.90
44843;DHT22;31884;52.538;13.820;2023-08-20T03:47:28;21.00;99.90
44843;DHT22;31884;52.538;13.820;2023-08-20T03:49:54;21.00;99.90
44843;DHT22;31884;52.538;13.820;2023-08-20T03:52:19;21.00;99.90
44843;DHT22;31884;52.538;13.820;2023-08-20T03:54:45;21.10;99.90
44843;DHT22;31884;52.538;13.820;2023-08-20T03:57:11;21.00;99.90
44843;DHT22;31884;52.538;13.820;2023-08-20T03:59:36;21.10;99.90
44843;DHT22;31884;52.538;13.820;2023-08-20T04:02:02;21.00;99.90
44843;DHT22;31884;52.538;13.820;2023-08-20T04:04:28;21.10;99.90
44843;DHT22;31884;52.538;13.820;2023-08-20T04:06:53;21.00;99.90
44843;DHT22;31884;52.538;13.820;2023-08-20T04:09:19;21.10;99.90
44843;DHT22;31884;52.538;13.820;2023-08-20T04:11:44;21.10;99.90
44843;DHT22;31884;52.538;13.820;2023-08-20T04:14:10;21.10;99.90
44843;DHT22;31884;52.538;13.820;2023-08-20T04:16:35;21.10;99.90
44843;DHT22;31884;52.538;13.820;2023-08-20T04:19:01;21.10;99.90
44843;DHT22;31884;52.538;13.820;2023-08-20T04:21:26;21.10;99.90
44843;DHT22;31884;52.538;13.820;2023-08-20T04:23:52;21.10;99.90
44843;DHT22;31884;52.538;13.820;2023-08-20T04:26:17;21.10;99.90
44843;DHT22;31884;52.538;13.820;2023-08-20T04:28:43;21.20;99.90
44843;DHT22;31884;52.538;13.820;2023-08-20T04:31:08;21.20;99.90
44843;DHT22;31884;52.538;13.820;2023-08-20T04:33:34;21.20;99.90
44843;DHT22;31884;52.538;13.820;2023-08-20T04:35:59;21.20;99.90
44843;DHT22;31884;52.538;13.820;2023-08-20T04:38:25;21.20;99.90
44843;DHT22;31884;52.538;13.820;2023-08-20T04:40:50;21.20;99.90
44843;DHT22;31884;52.538;13.820;2023-08-20T04:43:16;21.40;99.90
44843;DHT22;31884;52.538;13.820;2023-08-20T04:45:42;21.60;99.90
44843;DHT22;31884;52.538;13.820;2023-08-20T04:48:08;21.90;99.90
44843;DHT22;31884;52.538;13.820;2023-08-20T04:50:33;22.30;99.90
44843;DHT22;31884;52.538;13.820;2023-08-20T04:52:59;22.70;99.90
44843;DHT22;31884;52.538;13.820;2023-08-20T04:55:25;23.30;99.90
44843;DHT22;31884;52.538;13.820;2023-08-20T04:57:51;24.00;99.90
44843;DHT22;31884;52.538;13.820;2023-08-20T05:00:16;24.60;99.90
44843;DHT22;31884;52.538;13.820;2023-08-20T05:02:42;25.30;99.90
44843;DHT22;31884;52.538;13.820;2023-08-20T05:05:07;26.00;99.90
44843;DHT22;31884;52.538;13.820;2023-08-20T05:07:33;26.60;99.90
44843;DHT22;31884;52.538;13.820;2023-08-20T05:09:58;27.20;98.10
44843;DHT22;31884;52.538;13.820;2023-08-20T05:12:24;27.70;97.40
44843;DHT22;31884;52.538;13.820;2023-08-20T05:14:49;28.30;94.90
44843;DHT22;31884;52.538;13.820;2023-08-20T05:17:15;28.90;93.30
44843;DHT22;31884;52.538;13.820;2023-08-20T05:19:40;29.50;92.40
44843;DHT22;31884;52.538;13.820;2023-08-20T05:22:06;30.10;90.60
44843;DHT22;31884;52.538;13.820;2023-08-20T05:24:31;30.60;89.00
44843;DHT22;31884;52.538;13.820;2023-08-20T05:27:07;30.70;85.90
44843;DHT22;31884;52.538;13.820;2023-08-20T05:29:33;31.10;75.80
44843;DHT22;31884;52.538;13.820;2023-08-20T05:31:59;31.50;81.40
44843;DHT22;31884;52.538;13.820;2023-08-20T05:34:24;31.90;79.00
44843;DHT22;31884;52.538;13.820;2023-08-20T05:36:50;32.30;76.10
44843;DHT22;31884;52.538;13.820;2023-08-20T05:39:15;32.70;75.00
44843;DHT22;31884;52.538;13.820;2023-08-20T05:41:41;32.90;72.10
44843;DHT22;31884;52.538;13.820;2023-08-20T05:44:06;33.30;71.10
44843;DHT22;31884;52.538;13.820;2023-08-20T05:46:32;33.60;69.00
44843;DHT22;31884;52.538;13.820;2023-08-20T05:48:57;33.40;63.00
44843;DHT22;31884;52.538;13.820;2023-08-20T05:51:23;33.60;64.30
44843;DHT22;31884;52.538;13.820;2023-08-20T05:53:48;34.10;64.00
44843;DHT22;31884;52.538;13.820;2023-08-20T05:56:14;34.40;61.80
44843;DHT22;31884;52.538;13.820;2023-08-20T05:58:39;34.90;60.40
44843;DHT22;31884;52.538;13.820;2023-08-20T06:01:04;34.90;58.90
44843;DHT22;31884;52.538;13.820;2023-08-20T06:03:30;35.00;57.70
44843;DHT22;31884;52.538;13.820;2023-08-20T06:05:58;35.30;56.40
44843;DHT22;31884;52.538;13.820;2023-08-20T06:08:23;35.40;53.10
44843;DHT22;31884;52.538;13.820;2023-08-20T06:10:49;35.60;53.60
44843;DHT22;31884;52.538;13.820;2023-08-20T06:13:15;36.10;52.30
44843;DHT22;31884;52.538;13.820;2023-08-20T06:15:40;36.70;51.00
44843;DHT22;31884;52.538;13.820;2023-08-20T06:18:06;37.20;49.00
44843;DHT22;31884;52.538;13.820;2023-08-20T06:20:32;37.60;47.10
44843;DHT22;31884;52.538;13.820;2023-08-20T06:22:57;37.90;45.20
44843;DHT22;31884;52.538;13.820;2023-08-20T06:25:23;38.30;35.70
44843;DHT22;31884;52.538;13.820;2023-08-20T06:27:48;38.30;41.50
44843;DHT22;31884;52.538;13.820;2023-08-20T06:30:14;38.30;39.40
44843;DHT22;31884;52.538;13.820;2023-08-20T06:32:39;37.20;40.20
44843;DHT22;31884;52.538;13.820;2023-08-20T06:35:05;35.70;38.50
44843;DHT22;31884;52.538;13.820;2023-08-20T06:37:31;34.40;43.40
44843;DHT22;31884;52.538;13.820;2023-08-20T06:39:56;34.10;44.60
44843;DHT22;31884;52.538;13.820;2023-08-20T06:42:22;33.80;44.80
44843;DHT22;31884;52.538;13.820;2023-08-20T06:44:47;33.50;45.30
44843;DHT22;31884;52.538;13.820;2023-08-20T06:47:13;32.90;46.40
44843;DHT22;31884;52.538;13.820;2023-08-20T06:49:40;32.50;47.50
44843;DHT22;31884;52.538;13.820;2023-08-20T06:52:05;32.10;48.40
44843;DHT22;31884;52.538;13.820;2023-08-20T06:54:31;32.20;48.50
44843;DHT22;31884;52.538;13.820;2023-08-20T06:56:56;32.60;48.00
44843;DHT22;31884;52.538;13.820;2023-08-20T06:59:22;32.60;47.90
44843;DHT22;31884;52.538;13.820;2023-08-20T07:01:48;32.30;48.20
44843;DHT22;31884;52.538;13.820;2023-08-20T07:04:14;32.00;49.10
44843;DHT22;31884;52.538;13.820;2023-08-20T07:06:39;31.50;50.10
44843;DHT22;31884;52.538;13.820;2023-08-20T07:09:05;31.80;50.50
44843;DHT22;31884;52.538;13.820;2023-08-20T07:11:30;32.40;49.90
44843;DHT22;31884;52.538;13.820;2023-08-20T07:13:56;33.10;48.60
44843;DHT22;31884;52.538;13.820;2023-08-20T07:16:21;33.10;48.20
44843;DHT22;31884;52.538;13.820;2023-08-20T07:18:47;32.60;48.90
44843;DHT22;31884;52.538;13.820;2023-08-20T07:21:12;32.10;49.30
44843;DHT22;31884;52.538;13.820;2023-08-20T07:23:38;31.60;50.50
44843;DHT22;31884;52.538;13.820;2023-08-20T07:26:05;31.30;51.40
44843;DHT22;31884;52.538;13.820;2023-08-20T07:28:31;31.30;51.80
44843;DHT22;31884;52.538;13.820;2023-08-20T07:31:15;31.40;52.30
44843;DHT22;31884;52.538;13.820;2023-08-20T07:33:41;32.00;51.50
44843;DHT22;31884;52.538;13.820;2023-08-20T07:36:06;32.40;50.50
44843;DHT22;31884;52.538;13.820;2023-08-20T07:38:32;32.60;50.00
44843;DHT22;31884;52.538;13.820;2023-08-20T07:40:57;32.60;49.90
44843;DHT22;31884;52.538;13.820;2023-08-20T07:43:24;33.00;49.70
44843;DHT22;31884;52.538;13.820;2023-08-20T07:45:49;33.00;49.00
44843;DHT22;31884;52.538;13.820;2023-08-20T07:48:15;33.30;49.10
44843;DHT22;31884;52.538;13.820;2023-08-20T07:50:40;34.00;47.50
44843;DHT22;31884;52.538;13.820;2023-08-20T07:53:06;34.90;45.80
44843;DHT22;31884;52.538;13.820;2023-08-20T07:55:31;35.50;44.20
44843;DHT22;31884;52.538;13.820;2023-08-20T07:57:57;35.90;42.80
44843;DHT22;31884;52.538;13.820;2023-08-20T08:00:22;36.30;41.70
44843;DHT22;31884;52.538;13.820;2023-08-20T08:02:48;36.50;39.60
44843;DHT22;31884;52.538;13.820;2023-08-20T08:05:13;36.10;41.20
44843;DHT22;31884;52.538;13.820;2023-08-20T08:07:39;35.90;41.30
44843;DHT22;31884;52.538;13.820;2023-08-20T08:10:05;36.00;41.00
44843;DHT22;31884;52.538;13.820;2023-08-20T08:12:31;35.60;40.80
44843;DHT22;31884;52.538;13.820;2023-08-20T08:14:56;35.80;41.00
44843;DHT22;31884;52.538;13.820;2023-08-20T08:17:22;36.00;40.40
44843;DHT22;31884;52.538;13.820;2023-08-20T08:19:47;36.00;40.10
44843;DHT22;31884;52.538;13.820;2023-08-20T08:22:14;35.90;39.80
44843;DHT22;31884;52.538;13.820;2023-08-20T08:24:39;35.50;39.40
44843;DHT22;31884;52.538;13.820;2023-08-20T08:27:07;35.10;39.40
44843;DHT22;31884;52.538;13.820;2023-08-20T08:29:32;34.70;39.70
44843;DHT22;31884;52.538;13.820;2023-08-20T08:31:58;34.70;39.90
44843;DHT22;31884;52.538;13.820;2023-08-20T08:34:23;34.70;40.20
44843;DHT22;31884;52.538;13.820;2023-08-20T08:36:49;34.60;40.70
44843;DHT22;31884;52.538;13.820;2023-08-20T08:39:14;34.80;40.60
44843;DHT22;31884;52.538;13.820;2023-08-20T08:41:41;34.80;40.20
44843;DHT22;31884;52.538;13.820;2023-08-20T08:44:08;34.10;40.30
44843;DHT22;31884;52.538;13.820;2023-08-20T08:46:35;33.80;40.70
44843;DHT22;31884;52.538;13.820;2023-08-20T08:49:02;33.80;41.00
44843;DHT22;31884;52.538;13.820;2023-08-20T08:51:28;33.70;40.90
44843;DHT22;31884;52.538;13.820;2023-08-20T08:57:16;33.50;40.20
44843;DHT22;31884;52.538;13.820;2023-08-20T08:59:43;33.50;41.50
44843;DHT22;31884;52.538;13.820;2023-08-20T09:02:11;33.50;41.80
44843;DHT22;31884;52.538;13.820;2023-08-20T09:04:42;33.50;42.10
44843;DHT22;31884;52.538;13.820;2023-08-20T09:07:15;33.60;42.20
44843;DHT22;31884;52.538;13.820;2023-08-20T09:09:44;33.50;42.30
44843;DHT22;31884;52.538;13.820;2023-08-20T09:12:15;33.60;43.20
44843;DHT22;31884;52.538;13.820;2023-08-20T09:14:49;33.60;43.40
44843;DHT22;31884;52.538;13.820;2023-08-20T09:17:15;33.70;42.90
44843;DHT22;31884;52.538;13.820;2023-08-20T09:19:43;34.00;42.70
44843;DHT22;31884;52.538;13.820;2023-08-20T09:22:11;34.00;42.00
44843;DHT22;31884;52.538;13.820;2023-08-20T09:24:44;34.10;42.40
44843;DHT22;31884;52.538;13.820;2023-08-20T09:27:11;34.10;41.40
44843;DHT22;31884;52.538;13.820;2023-08-20T09:29:47;34.20;41.90
44843;DHT22;31884;52.538;13.820;2023-08-20T09:32:27;34.40;41.00
44843;DHT22;31884;52.538;13.820;2023-08-20T09:34:54;34.70;39.80
44843;DHT22;31884;52.538;13.820;2023-08-20T09:37:21;34.70;40.00
44843;DHT22;31884;52.538;13.820;2023-08-20T09:39:46;34.70;39.20
44843;DHT22;31884;52.538;13.820;2023-08-20T09:42:13;34.70;38.70
44843;DHT22;31884;52.538;13.820;2023-08-20T09:44:41;34.70;38.30
44843;DHT22;31884;52.538;13.820;2023-08-20T09:47:08;34.70;38.20
44843;DHT22;31884;52.538;13.820;2023-08-20T09:49:39;34.70;38.30
44843;DHT22;31884;52.538;13.820;2023-08-20T09:52:07;34.60;38.40
44843;DHT22;31884;52.538;13.820;2023-08-20T09:54:49;34.70;38.50
44843;DHT22;31884;52.538;13.820;2023-08-20T09:57:26;34.60;38.20
44843;DHT22;31884;52.538;13.820;2023-08-20T09:59:55;34.60;38.00
44843;DHT22;31884;52.538;13.820;2023-08-20T10:02:21;34.50;38.60
44843;DHT22;31884;52.538;13.820;2023-08-20T10:04:47;34.50;38.70
44843;DHT22;31884;52.538;13.820;2023-08-20T10:07:14;34.60;37.80
44843;DHT22;31884;52.538;13.820;2023-08-20T10:09:40;34.50;37.90
44843;DHT22;31884;52.538;13.820;2023-08-20T10:12:07;34.50;37.70
44843;DHT22;31884;52.538;13.820;2023-08-20T10:17:57;34.30;37.60
44843;DHT22;31884;52.538;13.820;2023-08-20T10:20:22;34.20;37.30
44843;DHT22;31884;52.538;13.820;2023-08-20T10:22:50;34.10;37.20
44843;DHT22;31884;52.538;13.820;2023-08-20T10:25:26;34.00;37.50
44843;DHT22;31884;52.538;13.820;2023-08-20T10:27:53;33.90;38.40
44843;DHT22;31884;52.538;13.820;2023-08-20T10:30:24;33.80;38.20
44843;DHT22;31884;52.538;13.820;2023-08-20T10:32:56;33.80;38.50
44843;DHT22;31884;52.538;13.820;2023-08-20T10:35:31;33.60;38.90
44843;DHT22;31884;52.538;13.820;2023-08-20T10:38:12;33.50;40.60
44843;DHT22;31884;52.538;13.820;2023-08-20T10:40:57;33.30;40.10
44843;DHT22;31884;52.538;13.820;2023-08-20T10:43:40;33.30;40.80
44843;DHT22;31884;52.538;13.820;2023-08-20T10:46:13;33.30;40.50
44843;DHT22;31884;52.538;13.820;2023-08-20T10:48:40;33.20;40.20
44843;DHT22;31884;52.538;13.820;2023-08-20T10:51:14;33.00;40.60
44843;DHT22;31884;52.538;13.820;2023-08-20T10:53:42;32.80;41.70
44843;DHT22;31884;52.538;13.820;2023-08-20T10:56:09;32.60;41.30
44843;DHT22;31884;52.538;13.820;2023-08-20T10:58:35;32.50;41.20
44843;DHT22;31884;52.538;13.820;2023-08-20T11:01:16;32.40;41.80
44843;DHT22;31884;52.538;13.820;2023-08-20T11:03:44;32.30;42.70
44843;DHT22;31884;52.538;13.820;2023-08-20T11:06:10;32.20;42.40
44843;DHT22;31884;52.538;13.820;2023-08-20T11:08:37;32.30;42.30
44843;DHT22;31884;52.538;13.820;2023-08-20T11:11:02;32.20;42.40
44843;DHT22;31884;52.538;13.820;2023-08-20T11:13:32;32.20;42.70
44843;DHT22;31884;52.538;13.820;2023-08-20T11:15:58;32.00;42.70
44843;DHT22;31884;52.538;13.820;2023-08-20T11:18:24;32.00;42.80
44843;DHT22;31884;52.538;13.820;2023-08-20T11:20:50;31.90;42.70
44843;DHT22;31884;52.538;13.820;2023-08-20T11:23:16;31.90;42.90
44843;DHT22;31884;52.538;13.820;2023-08-20T11:25:42;31.70;43.20
44843;DHT22;31884;52.538;13.820;2023-08-20T11:28:09;31.70;42.60
44843;DHT22;31884;52.538;13.820;2023-08-20T11:30:35;31.60;42.60
44843;DHT22;31884;52.538;13.820;2023-08-20T11:33:00;31.60;42.80
44843;DHT22;31884;52.538;13.820;2023-08-20T11:35:26;31.40;43.40
44843;DHT22;31884;52.538;13.820;2023-08-20T11:37:52;31.40;43.70
44843;DHT22;31884;52.538;13.820;2023-08-20T11:40:20;31.30;43.60
44843;DHT22;31884;52.538;13.820;2023-08-20T11:42:46;31.40;43.70
44843;DHT22;31884;52.538;13.820;2023-08-20T11:45:12;31.40;43.70
44843;DHT22;31884;52.538;13.820;2023-08-20T11:47:41;31.50;43.40
44843;DHT22;31884;52.538;13.820;2023-08-20T11:50:08;31.50;43.50
44843;DHT22;31884;52.538;13.820;2023-08-20T11:52:35;31.50;43.20
44843;DHT22;31884;52.538;13.820;2023-08-20T11:55:02;31.60;43.00
44843;DHT22;31884;52.538;13.820;2023-08-20T11:57:29;31.60;42.90
44843;DHT22;31884;52.538;13.820;2023-08-20T11:59:55;31.60;42.80
44843;DHT22;31884;52.538;13.820;2023-08-20T12:02:27;31.50;42.60
44843;DHT22;31884;52.538;13.820;2023-08-20T12:04:56;31.50;41.40
44843;DHT22;31884;52.538;13.820;2023-08-20T12:07:25;31.40;41.20
44843;DHT22;31884;52.538;13.820;2023-08-20T12:09:51;31.30;40.90
44843;DHT22;31884;52.538;13.820;2023-08-20T12:12:19;31.10;41.60
44843;DHT22;31884;52.538;13.820;2023-08-20T12:14:46;31.10;41.40
44843;DHT22;31884;52.538;13.820;2023-08-20T12:17:11;31.00;41.10
44843;DHT22;31884;52.538;13.820;2023-08-20T12:19:37;30.90;40.70
44843;DHT22;31884;52.538;13.820;2023-08-20T12:22:02;30.90;40.70
44843;DHT22;31884;52.538;13.820;2023-08-20T12:24:29;30.90;40.10
44843;DHT22;31884;52.538;13.820;2023-08-20T12:26:54;30.80;39.40
44843;DHT22;31884;52.538;13.820;2023-08-20T12:29:20;30.90;39.00
44843;DHT22;31884;52.538;13.820;2023-08-20T12:31:46;30.90;39.30
44843;DHT22;31884;52.538;13.820;2023-08-20T12:34:11;30.90;39.20
44843;DHT22;31884;52.538;13.820;2023-08-20T12:36:37;30.80;38.40
44843;DHT22;31884;52.538;13.820;2023-08-20T12:39:03;30.80;38.70
44843;DHT22;31884;52.538;13.820;2023-08-20T12:41:30;30.80;38.80
44843;DHT22;31884;52.538;13.820;2023-08-20T12:43:56;30.80;38.40
44843;DHT22;31884;52.538;13.820;2023-08-20T12:46:21;30.70;38.30
44843;DHT22;31884;52.538;13.820;2023-08-20T12:48:47;30.70;38.20
44843;DHT22;31884;52.538;13.820;2023-08-20T12:51:12;30.70;38.10
44843;DHT22;31884;52.538;13.820;2023-08-20T12:53:40;30.70;38.00
44843;DHT22;31884;52.538;13.820;2023-08-20T12:56:06;30.80;37.80
44843;DHT22;31884;52.538;13.820;2023-08-20T12:58:31;30.70;37.50
44843;DHT22;31884;52.538;13.820;2023-08-20T13:00:57;30.60;37.70
44843;DHT22;31884;52.538;13.820;2023-08-20T13:03:22;30.60;36.90
44843;DHT22;31884;52.538;13.820;2023-08-20T13:05:48;30.60;36.70
44843;DHT22;31884;52.538;13.820;2023-08-20T13:08:14;30.60;36.30
44843;DHT22;31884;52.538;13.820;2023-08-20T13:10:40;30.60;36.10
44843;DHT22;31884;52.538;13.820;2023-08-20T13:13:10;30.50;35.30
44843;DHT22;31884;52.538;13.820;2023-08-20T13:15:36;30.40;35.20
44843;DHT22;31884;52.538;13.820;2023-08-20T13:18:02;30.40;35.20
44843;DHT22;31884;52.538;13.820;2023-08-20T13:20:29;30.40;35.10
44843;DHT22;31884;52.538;13.820;2023-08-20T13:22:54;30.40;34.90
44843;DHT22;31884;52.538;13.820;2023-08-20T13:25:20;30.30;34.80
44843;DHT22;31884;52.538;13.820;2023-08-20T13:27:49;30.40;35.10
44843;DHT22;31884;52.538;13.820;2023-08-20T13:30:15;30.30;35.40
44843;DHT22;31884;52.538;13.820;2023-08-20T13:32:40;30.30;35.90
44843;DHT22;31884;52.538;13.820;2023-08-20T13:35:06;30.30;36.60
44843;DHT22;31884;52.538;13.820;2023-08-20T13:37:33;30.30;36.00
44843;DHT22;31884;52.538;13.820;2023-08-20T13:39:59;30.30;36.10
44843;DHT22;31884;52.538;13.820;2023-08-20T13:42:25;30.30;35.80
44843;DHT22;31884;52.538;13.820;2023-08-20T13:44:51;30.20;35.30
44843;DHT22;31884;52.538;13.820;2023-08-20T13:47:16;30.20;35.20
44843;DHT22;31884;52.538;13.820;2023-08-20T13:49:42;30.20;35.50
44843;DHT22;31884;52.538;13.820;2023-08-20T13:52:07;30.20;35.70
44843;DHT22;31884;52.538;13.820;2023-08-20T13:54:35;30.20;35.50
44843;DHT22;31884;52.538;13.820;2023-08-20T13:57:00;30.10;35.80
44843;DHT22;31884;52.538;13.820;2023-08-20T13:59:26;30.10;35.70
44843;DHT22;31884;52.538;13.820;2023-08-20T14:01:51;30.10;35.60
44843;DHT22;31884;52.538;13.820;2023-08-20T14:04:17;30.20;35.50
44843;DHT22;31884;52.538;13.820;2023-08-20T14:06:42;30.40;35.60
44843;DHT22;31884;52.538;13.820;2023-08-20T14:09:08;30.40;35.30
44843;DHT22;31884;52.538;13.820;2023-08-20T14:11:33;30.40;35.20
44843;DHT22;31884;52.538;13.820;2023-08-20T14:13:59;30.40;35.10
44843;DHT22;31884;52.538;13.820;2023-08-20T14:16:24;30.40;35.10
44843;DHT22;31884;52.538;13.820;2023-08-20T14:18:50;30.50;35.20
44843;DHT22;31884;52.538;13.820;2023-08-20T14:21:16;30.60;34.90
44843;DHT22;31884;52.538;13.820;2023-08-20T14:23:41;30.70;34.70
44843;DHT22;31884;52.538;13.820;2023-08-20T14:26:07;30.70;34.50
44843;DHT22;31884;52.538;13.820;2023-08-20T14:28:33;30.70;34.40
44843;DHT22;31884;52.538;13.820;2023-08-20T14:31:02;30.70;34.30
44843;DHT22;31884;52.538;13.820;2023-08-20T14:33:29;30.70;33.60
44843;DHT22;31884;52.538;13.820;2023-08-20T14:35:55;30.70;33.30
44843;DHT22;31884;52.538;13.820;2023-08-20T14:38:21;30.70;33.20
44843;DHT22;31884;52.538;13.820;2023-08-20T14:40:46;30.80;33.40
44843;DHT22;31884;52.538;13.820;2023-08-20T14:43:12;30.90;33.20
44843;DHT22;31884;52.538;13.820;2023-08-20T14:45:38;31.00;32.90
44843;DHT22;31884;52.538;13.820;2023-08-20T14:48:03;31.00;32.70
44843;DHT22;31884;52.538;13.820;2023-08-20T14:50:29;31.00;32.60
44843;DHT22;31884;52.538;13.820;2023-08-20T14:52:55;31.10;32.40
44843;DHT22;31884;52.538;13.820;2023-08-20T14:55:21;31.00;32.10
44843;DHT22;31884;52.538;13.820;2023-08-20T14:57:46;31.00;32.20
44843;DHT22;31884;52.538;13.820;2023-08-20T15:00:13;31.10;31.90
44843;DHT22;31884;52.538;13.820;2023-08-20T15:02:45;31.00;31.20
44843;DHT22;31884;52.538;13.820;2023-08-20T15:05:11;31.10;30.60
44843;DHT22;31884;52.538;13.820;2023-08-20T15:07:36;31.00;30.80
44843;DHT22;31884;52.538;13.820;2023-08-20T15:10:05;30.90;30.50
44843;DHT22;31884;52.538;13.820;2023-08-20T15:12:35;30.80;30.30
44843;DHT22;31884;52.538;13.820;2023-08-20T15:15:02;30.70;29.50
44843;DHT22;31884;52.538;13.820;2023-08-20T15:17:29;30.60;29.40
44843;DHT22;31884;52.538;13.820;2023-08-20T15:19:54;30.50;29.10
44843;DHT22;31884;52.538;13.820;2023-08-20T15:22:20;30.40;29.10
44843;DHT22;31884;52.538;13.820;2023-08-20T15:24:45;30.40;29.10
44843;DHT22;31884;52.538;13.820;2023-08-20T15:27:12;30.20;28.70
44843;DHT22;31884;52.538;13.820;2023-08-20T15:29:37;30.10;28.40